Time;durP1;ratioP1;P1;durP2;ratioP2;P2;SDS_P1;SDS_P2;PMS_P1;PMS_P2;Temp;Humidity;BMP_temperature;BMP_pressure;BME280_temperature;BME280_humidity;BME280_pressure;Samples;Min_cycle;Max_cycle;Signal;HPM_P1;HPM_P2
2023/12/01 00:01:27;;;;;;;22.27;12.52;;;22.50;42.00;;;;;;6171841;28;83075;-69
2023/12/01 00:04:27;;;;;;;27.65;14.73;;;22.50;41.80;;;;;;6170836;28;83528;-69
2023/12/01 00:07:28;;;;;;;27.02;15.35;;;22.50;41.50;;;;;;6172712;28;86944;-69
2023/12/01 00:10:28;;;;;;;26.48;14.25;;;22.50;41.20;;;;;;6173294;28;82771;-68
2023/12/01 00:13:29;;;;;;;23.92;14.02;;;22.50;41.40;;;;;;6171511;28;84313;-71
2023/12/01 00:16:29;;;;;;;23.85;13.40;;;22.50;41.30;;;;;;6177592;28;83208;-52
2023/12/01 00:19:30;;;;;;;28.05;15.23;;;22.50;42.40;;;;;;6174380;28;83052;-50
2023/12/01 00:22:31;;;;;;;26.95;16.45;;;22.50;41.00;;;;;;6175182;28;83038;-50
2023/12/01 00:25:31;;;;;;;26.02;15.68;;;22.50;41.70;;;;;;6175428;28;84826;-50
2023/12/01 00:28:32;;;;;;;26.95;15.95;;;22.50;40.90;;;;;;6174061;28;83883;-53
2023/12/01 00:31:32;;;;;;;26.02;15.73;;;22.40;41.00;;;;;;6172341;28;84307;-55
2023/12/01 00:34:33;;;;;;;29.83;15.27;;;22.40;40.90;;;;;;6170411;28;83236;-55
2023/12/01 00:37:33;;;;;;;25.13;15.48;;;22.40;41.00;;;;;;6172186;28;84536;-54
2023/12/01 00:40:34;;;;;;;25.25;16.23;;;22.40;40.70;;;;;;6170060;28;85799;-53
2023/12/01 00:43:36;;;;;;;24.55;15.18;;;22.40;41.20;;;;;;6171652;28;83711;-54
2023/12/01 00:46:37;;;;;;;25.95;15.43;;;22.40;41.10;;;;;;6171773;28;83417;-54
2023/12/01 00:49:37;;;;;;;25.80;15.77;;;22.40;41.30;;;;;;6174029;28;82933;-53
2023/12/01 00:52:38;;;;;;;23.25;14.57;;;22.40;41.10;;;;;;6176014;28;84900;-61
2023/12/01 00:55:39;;;;;;;23.50;14.43;;;22.40;41.10;;;;;;6174882;28;84472;-62
2023/12/01 00:58:39;;;;;;;25.42;15.48;;;22.40;41.80;;;;;;6173712;28;84133;-63
2023/12/01 01:01:40;;;;;;;25.88;14.90;;;22.40;41.20;;;;;;6174512;28;82964;-65
2023/12/01 01:04:41;;;;;;;27.75;15.88;;;22.40;41.20;;;;;;6175116;28;83314;-62
2023/12/01 01:07:42;;;;;;;24.67;15.20;;;22.40;41.10;;;;;;6174871;28;83154;-64
2023/12/01 01:10:42;;;;;;;24.80;14.20;;;22.40;41.50;;;;;;6174730;28;83245;-64
2023/12/01 01:13:43;;;;;;;24.50;13.73;;;22.50;41.50;;;;;;6174953;28;85765;-63
2023/12/01 01:16:43;;;;;;;26.13;14.68;;;22.50;41.50;;;;;;6174954;28;83843;-63
2023/12/01 01:19:44;;;;;;;21.85;12.43;;;22.50;41.50;;;;;;6174018;28;83754;-63
2023/12/01 01:22:45;;;;;;;23.88;14.02;;;22.50;41.70;;;;;;6174783;28;84677;-63
2023/12/01 01:25:45;;;;;;;23.02;14.18;;;22.50;41.10;;;;;;6167898;28;85445;-62
2023/12/01 01:28:46;;;;;;;24.17;13.75;;;22.50;41.20;;;;;;6166321;28;83334;-61
2023/12/01 01:31:46;;;;;;;21.63;13.27;;;22.50;41.50;;;;;;6174448;28;83312;-70
2023/12/01 01:34:47;;;;;;;29.90;14.35;;;22.50;41.60;;;;;;6173470;28;83503;-69
2023/12/01 01:37:47;;;;;;;24.98;14.48;;;22.50;41.10;;;;;;6170783;28;85201;-69
2023/12/01 01:40:48;;;;;;;20.85;12.63;;;22.40;41.40;;;;;;6170473;28;83096;-68
2023/12/01 01:43:48;;;;;;;21.77;13.48;;;22.40;41.50;;;;;;6171294;28;83071;-67
2023/12/01 01:46:50;;;;;;;23.52;13.27;;;22.40;41.40;;;;;;6169999;28;85399;-68
2023/12/01 01:49:50;;;;;;;23.52;13.43;;;22.40;41.50;;;;;;6170940;28;85339;-69
2023/12/01 01:52:51;;;;;;;20.27;12.07;;;22.40;41.80;;;;;;6171338;28;83264;-70
2023/12/01 01:55:51;;;;;;;23.48;13.95;;;22.40;42.40;;;;;;6171705;28;83520;-68
2023/12/01 01:58:52;;;;;;;23.08;13.10;;;22.40;41.10;;;;;;6172638;28;83781;-70
2023/12/01 02:01:52;;;;;;;23.92;13.88;;;22.40;41.50;;;;;;6170953;28;86049;-69
2023/12/01 02:04:53;;;;;;;26.23;14.63;;;22.40;41.10;;;;;;6172500;28;86375;-70
2023/12/01 02:07:54;;;;;;;20.80;12.40;;;22.50;40.80;;;;;;6174328;28;83267;-68
2023/12/01 02:10:54;;;;;;;21.98;12.38;;;22.40;41.20;;;;;;6171622;28;84869;-67
2023/12/01 02:13:59;;;;;;;21.15;11.88;;;22.40;41.70;;;;;;6174457;28;83398;-70
2023/12/01 02:16:59;;;;;;;22.10;12.68;;;22.40;42.10;;;;;;6173341;28;83053;-70
2023/12/01 02:20:00;;;;;;;25.15;14.50;;;22.40;41.70;;;;;;6171860;28;84256;-73
2023/12/01 02:23:00;;;;;;;22.73;13.82;;;22.40;41.20;;;;;;6172365;28;85932;-74
2023/12/01 02:26:01;;;;;;;26.05;14.82;;;22.40;40.70;;;;;;6172508;28;84178;-53
2023/12/01 02:29:01;;;;;;;28.35;16.50;;;22.40;41.00;;;;;;6160861;28;84363;-51
2023/12/01 02:32:02;;;;;;;31.55;17.20;;;22.40;41.60;;;;;;6172425;28;86407;-51
2023/12/01 02:35:02;;;;;;;26.83;15.38;;;22.40;40.80;;;;;;6172506;28;83027;-51
2023/12/01 02:38:03;;;;;;;30.38;17.40;;;22.40;40.90;;;;;;6170381;28;84852;-49
2023/12/01 02:41:03;;;;;;;31.08;16.95;;;22.30;41.00;;;;;;6172720;28;83171;-49
2023/12/01 02:44:04;;;;;;;31.27;17.25;;;22.30;40.90;;;;;;6171715;28;85757;-73
2023/12/01 02:47:05;;;;;;;25.73;15.73;;;22.30;40.90;;;;;;6172864;28;83473;-70
2023/12/01 02:50:09;;;;;;;27.48;16.90;;;22.30;40.90;;;;;;6172117;28;84721;-69
2023/12/01 02:53:10;;;;;;;30.05;16.85;;;22.30;40.70;;;;;;6172946;28;83542;-69
2023/12/01 02:56:11;;;;;;;28.90;16.20;;;22.30;40.80;;;;;;6173809;28;83812;-67
2023/12/01 02:59:11;;;;;;;29.77;17.58;;;22.30;40.90;;;;;;6173264;28;83150;-68
2023/12/01 03:02:12;;;;;;;29.27;16.67;;;22.20;40.90;;;;;;6170017;28;84845;-61
2023/12/01 03:05:12;;;;;;;28.70;16.73;;;22.30;41.00;;;;;;6171304;28;83521;-62
2023/12/01 03:08:13;;;;;;;28.52;16.60;;;22.30;40.90;;;;;;6172991;28;83502;-62
2023/12/01 03:11:13;;;;;;;26.95;15.52;;;22.30;41.10;;;;;;6173471;28;83299;-61
2023/12/01 03:14:14;;;;;;;27.95;16.60;;;22.30;41.40;;;;;;6172038;28;85930;-61
2023/12/01 03:17:14;;;;;;;25.88;15.27;;;22.30;41.50;;;;;;6162949;28;86309;-61
2023/12/01 03:20:15;;;;;;;29.90;17.45;;;22.30;41.60;;;;;;6172942;28;83186;-68
2023/12/01 03:23:15;;;;;;;29.35;17.17;;;22.30;41.30;;;;;;6170192;28;85055;-67
2023/12/01 03:26:18;;;;;;;30.65;15.98;;;22.30;41.20;;;;;;6171544;28;83830;-70
2023/12/01 03:29:19;;;;;;;24.17;13.93;;;22.30;41.40;;;;;;6193549;28;87549;-70
2023/12/01 03:32:19;;;;;;;25.80;14.90;;;22.30;41.50;;;;;;6136582;28;85837;-71
2023/12/01 03:35:20;;;;;;;26.55;15.07;;;22.30;41.90;;;;;;6170208;28;84152;-70
2023/12/01 03:38:21;;;;;;;26.83;15.52;;;22.30;41.40;;;;;;6170213;28;82895;-71
2023/12/01 03:41:21;;;;;;;33.10;16.65;;;22.30;41.00;;;;;;6169439;28;83441;-71
2023/12/01 03:44:22;;;;;;;27.67;16.25;;;22.30;41.10;;;;;;6167991;28;83165;-70
2023/12/01 03:47:22;;;;;;;27.55;16.52;;;22.30;41.10;;;;;;6168189;28;83631;-70
2023/12/01 03:50:23;;;;;;;28.42;15.57;;;22.30;41.00;;;;;;6172926;28;83283;-73
2023/12/01 03:53:23;;;;;;;29.88;15.85;;;22.30;40.90;;;;;;6171694;28;85337;-73
2023/12/01 03:56:24;;;;;;;28.63;17.60;;;22.30;40.70;;;;;;6174698;28;86003;-70
2023/12/01 03:59:25;;;;;;;28.20;15.95;;;22.30;40.60;;;;;;6175903;28;83721;-52
2023/12/01 04:02:25;;;;;;;29.05;16.10;;;22.30;41.00;;;;;;6172527;28;89354;-53
2023/12/01 04:05:26;;;;;;;27.58;16.02;;;22.30;40.90;;;;;;6173025;28;83169;-54
2023/12/01 04:08:27;;;;;;;27.65;15.27;;;22.30;40.40;;;;;;6176209;28;82884;-54
2023/12/01 04:11:27;;;;;;;24.48;14.20;;;22.30;40.60;;;;;;6171221;28;83723;-59
2023/12/01 04:14:29;;;;;;;32.00;17.33;;;22.30;41.10;;;;;;6175546;28;83155;-56
2023/12/01 04:17:32;;;;;;;30.02;16.48;;;22.30;40.40;;;;;;6174875;28;83317;-68
2023/12/01 04:20:36;;;;;;;30.85;16.98;;;22.40;40.80;;;;;;6174956;28;83034;-63
2023/12/01 04:23:36;;;;;;;29.20;17.25;;;22.40;40.50;;;;;;6175152;28;83315;-62
2023/12/01 04:26:37;;;;;;;30.95;17.92;;;22.40;39.90;;;;;;6175343;28;82949;-63
2023/12/01 04:29:38;;;;;;;29.05;16.88;;;22.50;39.60;;;;;;6174835;28;83975;-73
2023/12/01 04:32:39;;;;;;;29.05;16.25;;;22.50;39.40;;;;;;6175193;28;82955;-65
2023/12/01 04:35:40;;;;;;;32.45;18.52;;;22.50;39.00;;;;;;6176407;28;84477;-62
2023/12/01 04:38:40;;;;;;;30.77;17.92;;;22.60;38.90;;;;;;6176004;28;84519;-63
2023/12/01 04:41:41;;;;;;;29.48;16.58;;;22.60;38.90;;;;;;6175625;28;83654;-66
2023/12/01 04:44:41;;;;;;;30.77;17.77;;;22.60;38.70;;;;;;6175065;28;83124;-64
2023/12/01 04:47:42;;;;;;;32.08;18.50;;;22.70;38.70;;;;;;6176061;28;82956;-65
2023/12/01 04:50:42;;;;;;;34.03;17.63;;;22.70;38.40;;;;;;6175311;28;84517;-65
2023/12/01 04:53:43;;;;;;;35.80;19.42;;;22.70;38.10;;;;;;6174220;28;83471;-62
2023/12/01 04:56:43;;;;;;;31.10;17.88;;;22.70;37.90;;;;;;6171929;28;83088;-69
2023/12/01 04:59:44;;;;;;;32.88;18.40;;;22.80;38.00;;;;;;6173039;28;83504;-64
2023/12/01 05:02:44;;;;;;;29.88;17.48;;;22.80;38.20;;;;;;6173142;28;83781;-62
2023/12/01 05:05:45;;;;;;;39.58;17.83;;;22.80;38.40;;;;;;6175017;28;82883;-66
2023/12/01 05:08:45;;;;;;;31.63;17.77;;;22.80;38.60;;;;;;6174455;28;83607;-63
2023/12/01 05:11:46;;;;;;;30.42;17.63;;;22.90;38.70;;;;;;6173306;28;84001;-64
2023/12/01 05:14:46;;;;;;;31.10;17.23;;;22.90;38.70;;;;;;6174493;28;83243;-63
2023/12/01 05:17:47;;;;;;;28.15;16.88;;;22.90;39.10;;;;;;6174185;28;83584;-61
2023/12/01 05:20:47;;;;;;;27.95;16.30;;;22.90;39.40;;;;;;6174018;28;83203;-64
2023/12/01 05:23:48;;;;;;;28.80;16.45;;;23.00;39.80;;;;;;6174509;28;83152;-59
2023/12/01 05:26:48;;;;;;;34.58;16.17;;;23.00;40.00;;;;;;6172466;28;83307;-64
2023/12/01 05:29:49;;;;;;;27.67;16.77;;;23.00;40.30;;;;;;6171565;28;85387;-62
2023/12/01 05:32:49;;;;;;;28.50;16.33;;;23.00;40.60;;;;;;6172521;28;85930;-61
2023/12/01 05:35:50;;;;;;;32.97;17.77;;;23.00;40.50;;;;;;6173321;28;83868;-65
2023/12/01 05:38:50;;;;;;;28.52;16.40;;;23.10;40.50;;;;;;6172440;28;82977;-62
2023/12/01 05:41:51;;;;;;;34.60;18.23;;;23.00;40.20;;;;;;6172564;28;83377;-61
2023/12/01 05:44:52;;;;;;;28.55;16.80;;;23.10;40.00;;;;;;6171914;28;83151;-62
2023/12/01 05:47:53;;;;;;;31.05;18.40;;;23.10;39.80;;;;;;6169444;28;83276;-62
2023/12/01 05:50:53;;;;;;;38.65;18.08;;;23.10;39.60;;;;;;6169683;28;83324;-64
2023/12/01 05:53:54;;;;;;;38.55;17.80;;;23.10;40.10;;;;;;6171718;28;83159;-61
2023/12/01 05:56:55;;;;;;;29.88;17.48;;;23.10;40.90;;;;;;6167348;28;88465;-60
2023/12/01 05:59:55;;;;;;;33.58;16.15;;;23.10;40.50;;;;;;6171654;28;85369;-63
2023/12/01 06:02:57;;;;;;;38.78;17.90;;;23.10;40.30;;;;;;6145725;28;85583;-63
2023/12/01 06:05:58;;;;;;;34.03;16.90;;;23.10;40.10;;;;;;6147637;28;83124;-63
2023/12/01 06:08:58;;;;;;;28.90;17.48;;;23.10;39.90;;;;;;6163321;28;83196;-63
2023/12/01 06:11:59;;;;;;;33.72;16.20;;;23.00;39.70;;;;;;6167185;28;85513;-62
2023/12/01 06:14:59;;;;;;;29.05;17.35;;;23.00;39.60;;;;;;6170685;28;83319;-62
2023/12/01 06:18:00;;;;;;;32.45;16.65;;;23.00;39.60;;;;;;6171341;28;82935;-62
2023/12/01 06:21:00;;;;;;;29.77;17.73;;;23.00;39.50;;;;;;6164354;28;85799;-63
2023/12/01 06:24:01;;;;;;;28.60;16.98;;;22.90;39.50;;;;;;6169083;28;83160;-64
2023/12/01 06:27:04;;;;;;;28.88;17.73;;;22.90;39.40;;;;;;6168484;28;83200;-63
2023/12/01 06:30:04;;;;;;;31.20;18.77;;;22.90;39.20;;;;;;6152334;28;86204;-68
2023/12/01 06:33:12;;;;;;;33.17;19.05;;;22.90;39.40;;;;;;6213656;27;76216;-63
2023/12/01 06:36:13;;;;;;;29.92;17.75;;;22.90;39.40;;;;;;6167956;28;82988;-65
2023/12/01 06:39:13;;;;;;;29.40;17.92;;;22.80;39.50;;;;;;6167675;28;83083;-65
2023/12/01 06:42:14;;;;;;;32.60;18.02;;;22.80;39.30;;;;;;6162170;28;84298;-63
2023/12/01 06:45:14;;;;;;;32.22;17.73;;;22.80;39.50;;;;;;6161264;28;83114;-64
2023/12/01 06:48:15;;;;;;;30.70;18.13;;;22.80;39.40;;;;;;6164239;28;83709;-65
2023/12/01 06:51:15;;;;;;;31.05;18.65;;;22.80;39.40;;;;;;6158267;28;82976;-66
2023/12/01 06:54:16;;;;;;;33.40;19.20;;;22.80;39.50;;;;;;6166653;28;83703;-65
2023/12/01 06:57:16;;;;;;;32.35;18.73;;;22.70;39.40;;;;;;6165111;28;83013;-63
2023/12/01 07:00:29;;;;;;;34.50;19.73;;;22.70;39.20;;;;;;6157926;28;83933;-63
2023/12/01 07:03:29;;;;;;;32.50;20.52;;;22.70;39.00;;;;;;6159212;28;84210;-62
2023/12/01 07:06:30;;;;;;;34.63;20.30;;;22.70;38.50;;;;;;6162998;28;83291;-63
2023/12/01 07:09:30;;;;;;;34.53;20.08;;;22.60;38.80;;;;;;6165643;28;83381;-63
2023/12/01 07:12:31;;;;;;;33.90;19.98;;;22.60;38.70;;;;;;6167315;28;83029;-64
2023/12/01 07:15:32;;;;;;;32.28;19.33;;;22.50;38.70;;;;;;6163483;28;83348;-63
2023/12/01 07:18:32;;;;;;;32.17;18.98;;;22.60;38.60;;;;;;6167109;28;83335;-63
2023/12/01 07:21:33;;;;;;;33.72;19.98;;;22.50;38.50;;;;;;6164768;28;83931;-63
2023/12/01 07:24:33;;;;;;;29.77;18.25;;;22.50;38.20;;;;;;6166387;28;83444;-63
2023/12/01 07:27:34;;;;;;;32.50;19.10;;;22.50;38.40;;;;;;6167145;28;85077;-62
2023/12/01 07:30:34;;;;;;;32.60;19.65;;;22.50;39.20;;;;;;6174112;28;84191;-63
2023/12/01 07:33:35;;;;;;;31.10;17.75;;;22.50;38.40;;;;;;6191342;28;83576;-63
2023/12/01 07:36:35;;;;;;;36.03;20.83;;;22.40;38.50;;;;;;6191514;28;83504;-63
2023/12/01 07:39:36;;;;;;;35.75;19.83;;;22.50;38.30;;;;;;6190475;28;83161;-60
2023/12/01 07:42:36;;;;;;;36.40;20.33;;;22.40;38.10;;;;;;6184959;28;82892;-60
2023/12/01 07:45:37;;;;;;;34.42;19.60;;;22.40;38.20;;;;;;6161326;28;83121;-59
2023/12/01 07:48:37;;;;;;;34.40;20.05;;;22.40;38.30;;;;;;6172110;28;84714;-59
2023/12/01 07:51:38;;;;;;;32.15;18.98;;;22.40;38.20;;;;;;6171603;28;83162;-59
2023/12/01 07:54:38;;;;;;;33.95;19.70;;;22.40;38.20;;;;;;6174963;28;85058;-62
2023/12/01 07:57:39;;;;;;;33.30;20.05;;;22.40;38.90;;;;;;6173855;28;83481;-60
2023/12/01 08:00:40;;;;;;;32.20;19.17;;;22.40;38.40;;;;;;6167945;28;84315;-60
2023/12/01 08:03:41;;;;;;;31.55;19.25;;;22.40;38.30;;;;;;6167908;28;84650;-60
2023/12/01 08:06:41;;;;;;;34.08;19.25;;;22.40;38.40;;;;;;6172527;28;83861;-60
2023/12/01 08:09:42;;;;;;;29.55;18.15;;;22.40;38.40;;;;;;6173258;28;82787;-59
2023/12/01 08:12:43;;;;;;;31.52;18.30;;;22.40;38.60;;;;;;6173216;28;83132;-60
2023/12/01 08:15:43;;;;;;;30.75;19.25;;;22.40;38.60;;;;;;6173232;28;83048;-62
2023/12/01 08:18:44;;;;;;;34.78;18.63;;;22.40;38.90;;;;;;6175667;28;83595;-63
2023/12/01 08:21:44;;;;;;;31.88;18.20;;;22.40;38.90;;;;;;6164603;28;83096;-62
2023/12/01 08:24:48;;;;;;;32.55;18.70;;;22.40;39.00;;;;;;6166615;28;84023;-62
2023/12/01 08:27:48;;;;;;;28.95;17.02;;;22.40;39.30;;;;;;6170996;28;83047;-62
2023/12/01 08:30:48;;;;;;;24.00;15.00;;;22.40;39.50;;;;;;6165526;28;83168;-63
2023/12/01 08:33:49;;;;;;;26.50;16.38;;;22.40;39.30;;;;;;6171316;28;88404;-63
2023/12/01 08:36:49;;;;;;;32.53;18.88;;;22.50;39.10;;;;;;6174835;28;84068;-62
2023/12/01 08:39:50;;;;;;;30.98;17.30;;;22.50;38.60;;;;;;6173862;28;85394;-62
2023/12/01 08:42:54;;;;;;;27.98;17.42;;;22.50;38.40;;;;;;6168610;28;83022;-63
2023/12/01 08:45:54;;;;;;;32.15;18.90;;;22.50;38.10;;;;;;6169154;28;82929;-62
2023/12/01 08:48:55;;;;;;;32.45;19.45;;;22.60;38.80;;;;;;6174020;28;84060;-63
2023/12/01 08:51:55;;;;;;;33.22;19.50;;;22.60;37.90;;;;;;6173753;28;83086;-61
2023/12/01 08:54:56;;;;;;;30.10;18.67;;;22.70;37.90;;;;;;6172816;28;83593;-61
2023/12/01 08:57:56;;;;;;;30.73;19.25;;;22.70;37.90;;;;;;6170607;28;82859;-61
2023/12/01 09:00:57;;;;;;;30.70;18.00;;;22.80;37.70;;;;;;6173214;28;83543;-61
2023/12/01 09:03:57;;;;;;;31.65;19.45;;;22.80;37.70;;;;;;6161791;28;83380;-61
2023/12/01 09:06:58;;;;;;;34.10;20.10;;;22.80;37.50;;;;;;6173149;28;83068;-60
2023/12/01 09:09:59;;;;;;;31.13;19.15;;;22.80;37.40;;;;;;6174521;28;83090;-60
2023/12/01 09:13:00;;;;;;;34.63;20.45;;;22.90;37.60;;;;;;6173140;28;83156;-61
2023/12/01 09:16:00;;;;;;;39.13;21.80;;;22.90;37.40;;;;;;6173165;28;84093;-61
2023/12/01 09:19:01;;;;;;;36.33;20.70;;;22.90;37.30;;;;;;6172240;28;85518;-61
2023/12/01 09:22:01;;;;;;;34.95;21.23;;;22.90;37.20;;;;;;6173670;28;83481;-61
2023/12/01 09:25:02;;;;;;;33.55;20.98;;;22.90;37.10;;;;;;6171907;28;83015;-61
2023/12/01 09:28:02;;;;;;;36.92;22.55;;;23.00;37.20;;;;;;6163177;28;83644;-65
2023/12/01 09:31:03;;;;;;;36.25;21.85;;;23.00;37.10;;;;;;6171314;28;83101;-64
2023/12/01 09:34:03;;;;;;;35.08;21.90;;;23.00;37.10;;;;;;6173835;28;85796;-64
2023/12/01 09:37:04;;;;;;;36.83;23.25;;;23.00;37.10;;;;;;6172827;28;83524;-63
2023/12/01 09:40:06;;;;;;;36.33;22.27;;;23.00;37.20;;;;;;6165513;28;83584;-63
2023/12/01 09:43:07;;;;;;;39.83;23.70;;;23.00;37.20;;;;;;6173655;28;82857;-64
2023/12/01 09:46:07;;;;;;;37.15;21.60;;;23.00;37.20;;;;;;6171370;28;83367;-63
2023/12/01 09:49:08;;;;;;;39.72;22.30;;;23.00;37.20;;;;;;6173070;28;83376;-64
2023/12/01 09:52:08;;;;;;;37.35;20.85;;;23.00;37.20;;;;;;6172645;28;86476;-63
2023/12/01 09:55:09;;;;;;;31.38;20.10;;;23.10;37.30;;;;;;6174286;28;83625;-65
2023/12/01 09:58:09;;;;;;;33.85;20.65;;;23.10;37.50;;;;;;6169114;28;84097;-65
2023/12/01 10:01:10;;;;;;;32.17;20.52;;;23.10;37.60;;;;;;6173158;28;83358;-65
2023/12/01 10:04:10;;;;;;;34.83;21.15;;;23.10;37.90;;;;;;6160966;28;83342;-65
2023/12/01 10:07:11;;;;;;;35.28;20.75;;;23.10;37.50;;;;;;6172273;28;82932;-65
2023/12/01 10:10:11;;;;;;;33.30;20.15;;;23.10;37.40;;;;;;6171994;28;83166;-64
2023/12/01 10:13:12;;;;;;;33.08;20.25;;;23.10;37.70;;;;;;6172462;28;83360;-65
2023/12/01 10:16:12;;;;;;;32.38;19.95;;;23.10;37.40;;;;;;6173067;28;82956;-66
2023/12/01 10:19:13;;;;;;;33.28;20.60;;;23.10;37.20;;;;;;6172965;28;85392;-66
2023/12/01 10:22:13;;;;;;;37.33;21.80;;;23.10;37.20;;;;;;6173057;28;83376;-62
2023/12/01 10:25:14;;;;;;;35.55;21.23;;;23.10;37.00;;;;;;6169616;28;83808;-64
2023/12/01 10:28:14;;;;;;;39.22;21.75;;;23.10;37.10;;;;;;6162721;28;83052;-63
2023/12/01 10:31:15;;;;;;;35.60;21.83;;;23.10;37.30;;;;;;6168938;28;83263;-63
2023/12/01 10:34:15;;;;;;;39.45;23.15;;;23.20;37.20;;;;;;6168152;28;83472;-64
2023/12/01 10:37:16;;;;;;;41.03;23.30;;;23.10;37.10;;;;;;6169612;28;83177;-63
2023/12/01 10:40:16;;;;;;;38.15;22.55;;;23.10;37.20;;;;;;6171276;28;85041;-63
2023/12/01 10:43:17;;;;;;;41.30;23.05;;;23.20;37.10;;;;;;6165104;28;83718;-63
2023/12/01 10:46:17;;;;;;;38.78;23.45;;;23.10;37.00;;;;;;6163426;28;83335;-65
2023/12/01 10:49:18;;;;;;;41.00;23.00;;;23.10;37.00;;;;;;6171626;28;84086;-64
2023/12/01 10:52:18;;;;;;;40.13;22.73;;;23.20;37.20;;;;;;6171360;28;83053;-61
2023/12/01 10:55:20;;;;;;;37.38;22.13;;;23.20;37.20;;;;;;6171267;28;83888;-63
2023/12/01 10:58:21;;;;;;;35.90;21.85;;;23.20;37.10;;;;;;6169268;28;83266;-65
2023/12/01 11:01:22;;;;;;;35.72;20.35;;;23.20;37.20;;;;;;6172172;28;83087;-64
2023/12/01 11:04:25;;;;;;;33.35;20.60;;;23.30;37.40;;;;;;6161955;28;82950;-64
2023/12/01 11:07:27;;;;;;;41.22;22.70;;;23.20;37.50;;;;;;6140410;28;85273;-64
2023/12/01 11:10:27;;;;;;;30.85;19.23;;;23.20;37.60;;;;;;6170807;28;83038;-64
2023/12/01 11:13:28;;;;;;;33.30;19.20;;;23.20;37.70;;;;;;6168127;28;83576;-63
2023/12/01 11:16:31;;;;;;;32.67;19.33;;;23.20;37.80;;;;;;6171324;28;83007;-64
2023/12/01 11:19:31;;;;;;;34.15;19.88;;;23.20;37.80;;;;;;6176183;28;83234;-64
2023/12/01 11:22:37;;;;;;;32.92;18.77;;;23.20;37.90;;;;;;6175404;28;82862;-65
2023/12/01 11:25:37;;;;;;;31.45;18.55;;;23.20;38.00;;;;;;6175408;28;84034;-66
2023/12/01 11:31:43;;;;;;;29.52;17.75;;;23.20;38.10;;;;;;6173087;28;86364;-64
2023/12/01 11:34:44;;;;;;;29.92;18.23;;;23.20;38.10;;;;;;6166659;28;84705;-64
2023/12/01 11:37:45;;;;;;;29.58;18.05;;;23.20;38.10;;;;;;6175154;28;83028;-60
2023/12/01 11:40:46;;;;;;;27.85;14.90;;;23.20;38.00;;;;;;6171047;28;83597;-60
2023/12/01 11:43:47;;;;;;;26.55;15.85;;;23.20;38.10;;;;;;6173960;28;82755;-63
2023/12/01 11:46:55;;;;;;;27.02;15.48;;;23.20;38.00;;;;;;6175799;28;83869;-62
2023/12/01 11:49:56;;;;;;;27.10;15.43;;;23.20;37.80;;;;;;6174471;28;83220;-62
2023/12/01 11:52:56;;;;;;;24.08;14.68;;;23.20;37.90;;;;;;6172618;28;83183;-61
2023/12/01 11:55:57;;;;;;;24.80;14.77;;;23.20;37.80;;;;;;6173235;28;82942;-63
2023/12/01 11:58:57;;;;;;;26.58;14.07;;;23.20;37.70;;;;;;6174319;28;85502;-61
2023/12/01 12:01:57;;;;;;;24.63;14.15;;;23.20;37.90;;;;;;6172047;28;82894;-61
2023/12/01 12:05:01;;;;;;;21.77;13.27;;;23.20;37.70;;;;;;6173911;28;83193;-60
2023/12/01 12:08:01;;;;;;;25.42;14.88;;;23.20;37.80;;;;;;6169226;28;86128;-60
2023/12/01 12:11:02;;;;;;;26.60;15.15;;;23.20;37.70;;;;;;6171531;28;83752;-61
2023/12/01 12:14:02;;;;;;;27.23;15.77;;;23.20;37.70;;;;;;6173422;28;82893;-64
2023/12/01 12:17:03;;;;;;;25.05;16.30;;;23.20;37.30;;;;;;6172012;28;83085;-65
2023/12/01 12:20:05;;;;;;;28.00;16.77;;;23.20;37.30;;;;;;6174240;28;84219;-66
2023/12/01 12:23:05;;;;;;;30.70;17.80;;;23.20;37.10;;;;;;6174177;28;85268;-65
2023/12/01 12:26:06;;;;;;;26.83;17.23;;;23.20;36.80;;;;;;6175102;28;83807;-64
2023/12/01 12:29:07;;;;;;;30.25;17.23;;;23.20;36.80;;;;;;6167488;28;83675;-65
2023/12/01 12:32:08;;;;;;;29.85;17.30;;;23.20;36.80;;;;;;6172752;28;83192;-62
2023/12/01 12:35:08;;;;;;;29.92;18.17;;;23.20;36.60;;;;;;6162390;28;83700;-62
2023/12/01 12:38:09;;;;;;;27.52;15.98;;;23.20;36.40;;;;;;6171351;28;84018;-61
2023/12/01 12:41:09;;;;;;;29.52;17.50;;;23.20;36.40;;;;;;6162247;28;83105;-61
2023/12/01 12:44:12;;;;;;;30.25;17.80;;;23.20;36.50;;;;;;6174219;28;82962;-62
2023/12/01 12:47:12;;;;;;;27.63;17.92;;;23.20;36.50;;;;;;6173441;28;84009;-60
2023/12/01 12:50:13;;;;;;;27.08;17.27;;;23.20;36.40;;;;;;6175372;28;83208;-66
2023/12/01 12:53:13;;;;;;;28.15;17.05;;;23.20;36.30;;;;;;6172900;28;85820;-65
2023/12/01 12:56:14;;;;;;;29.75;18.77;;;23.30;36.40;;;;;;6171678;28;83270;-63
2023/12/01 12:59:14;;;;;;;33.25;19.70;;;23.20;36.30;;;;;;6174692;28;83141;-64
2023/12/01 13:02:15;;;;;;;33.20;17.88;;;23.20;36.40;;;;;;6167373;28;84459;-64
2023/12/01 13:05:15;;;;;;;32.20;18.73;;;23.30;36.30;;;;;;6174619;28;83533;-64
2023/12/01 13:08:16;;;;;;;28.70;18.65;;;23.30;36.30;;;;;;6176011;28;83935;-65
2023/12/01 13:11:17;;;;;;;29.73;19.08;;;23.30;36.30;;;;;;6173253;28;84854;-65
2023/12/01 13:14:17;;;;;;;28.10;18.00;;;23.20;36.30;;;;;;6172549;28;83295;-62
2023/12/01 13:17:18;;;;;;;29.75;17.40;;;23.30;36.20;;;;;;6168947;28;83044;-64
2023/12/01 13:20:18;;;;;;;30.58;17.98;;;23.20;36.40;;;;;;6147909;28;88618;-65
2023/12/01 13:23:19;;;;;;;31.52;18.13;;;23.20;36.50;;;;;;6148600;28;84572;-64
2023/12/01 13:26:20;;;;;;;25.25;16.23;;;23.20;36.60;;;;;;6143746;28;83041;-65
2023/12/01 13:29:21;;;;;;;26.08;16.27;;;23.20;36.60;;;;;;6146931;28;83063;-60
2023/12/01 13:32:21;;;;;;;30.10;17.65;;;23.30;36.70;;;;;;6146225;28;84321;-61
2023/12/01 13:35:22;;;;;;;25.52;15.57;;;23.30;36.70;;;;;;6147846;28;83377;-62
2023/12/01 13:38:23;;;;;;;25.75;15.73;;;23.30;36.80;;;;;;6135907;28;83320;-60
2023/12/01 13:41:24;;;;;;;27.52;16.25;;;23.30;36.80;;;;;;6135036;28;86156;-62
2023/12/01 13:44:25;;;;;;;24.30;15.45;;;23.30;36.70;;;;;;6147358;28;83608;-61
2023/12/01 13:47:26;;;;;;;26.77;16.60;;;23.30;36.90;;;;;;6139966;28;83724;-64
2023/12/01 13:50:26;;;;;;;25.85;16.08;;;23.30;36.70;;;;;;6146343;28;83015;-64
2023/12/01 13:53:27;;;;;;;26.80;15.95;;;23.30;36.70;;;;;;6146033;28;83273;-63
2023/12/01 13:56:28;;;;;;;26.10;15.98;;;23.30;36.70;;;;;;6128686;28;83502;-64
2023/12/01 13:59:28;;;;;;;26.23;16.05;;;23.30;36.80;;;;;;6123451;28;89340;-63
2023/12/01 14:02:29;;;;;;;26.10;16.20;;;23.30;36.50;;;;;;6158350;28;84465;-64
2023/12/01 14:05:30;;;;;;;26.30;16.75;;;23.20;36.70;;;;;;6144902;28;84183;-64
2023/12/01 14:08:31;;;;;;;25.10;16.23;;;23.20;36.60;;;;;;6148010;28;84575;-63
2023/12/01 14:11:31;;;;;;;26.33;16.40;;;23.20;36.70;;;;;;6145722;28;85096;-64
2023/12/01 14:14:32;;;;;;;29.20;16.27;;;23.20;36.90;;;;;;6147138;28;83214;-64
2023/12/01 14:17:32;;;;;;;28.33;17.20;;;23.10;36.90;;;;;;6145668;28;82963;-63
2023/12/01 14:20:33;;;;;;;27.45;17.52;;;23.10;37.30;;;;;;6143031;28;83567;-65
2023/12/01 14:23:33;;;;;;;25.50;16.42;;;23.10;37.40;;;;;;6145871;28;85213;-60
2023/12/01 14:26:34;;;;;;;31.60;16.83;;;23.10;37.20;;;;;;6138204;28;83512;-63
2023/12/01 14:29:38;;;;;;;26.58;15.55;;;23.10;37.60;;;;;;6148196;28;85088;-62
2023/12/01 14:32:38;;;;;;;28.35;17.25;;;23.00;37.70;;;;;;6141727;28;83594;-62
2023/12/01 14:35:39;;;;;;;29.52;16.90;;;23.00;37.60;;;;;;6135657;28;83159;-62
2023/12/01 14:38:39;;;;;;;31.42;17.33;;;23.00;37.90;;;;;;6148737;28;83571;-61
2023/12/01 14:41:40;;;;;;;32.47;17.58;;;23.00;38.00;;;;;;6131724;28;85853;-66
2023/12/01 14:44:41;;;;;;;25.98;16.83;;;23.00;38.20;;;;;;6135567;28;84427;-65
2023/12/01 14:47:41;;;;;;;30.30;18.17;;;23.00;39.20;;;;;;6123830;28;83468;-68
2023/12/01 14:50:42;;;;;;;36.22;19.60;;;23.10;39.00;;;;;;6123695;28;86735;-64
2023/12/01 14:53:42;;;;;;;28.63;17.60;;;23.10;38.80;;;;;;6137437;28;84847;-62
2023/12/01 14:56:43;;;;;;;28.92;17.05;;;23.10;39.10;;;;;;6122175;28;83897;-67
2023/12/01 14:59:43;;;;;;;28.95;18.25;;;23.10;39.00;;;;;;6128558;28;86168;-59
2023/12/01 15:02:44;;;;;;;29.98;16.73;;;23.10;39.00;;;;;;6140890;28;83320;-60
2023/12/01 15:05:44;;;;;;;26.85;17.40;;;23.10;39.10;;;;;;6135092;28;85440;-61
2023/12/01 15:08:45;;;;;;;33.35;17.92;;;23.10;39.00;;;;;;6119779;28;85285;-60
2023/12/01 15:11:48;;;;;;;27.13;16.45;;;23.10;39.10;;;;;;6134360;28;83722;-60
2023/12/01 15:14:48;;;;;;;30.20;17.05;;;23.10;39.00;;;;;;6139920;28;83857;-60
2023/12/01 15:17:49;;;;;;;27.75;17.38;;;23.10;39.30;;;;;;6141351;28;83302;-59
2023/12/01 15:20:49;;;;;;;26.48;17.05;;;23.10;38.90;;;;;;6141815;28;83339;-58